Time;durP1;ratioP1;P1;durP2;ratioP2;P2;SDS_P1;SDS_P2;PMS_P1;PMS_P2;Temp;Humidity;BMP_temperature;BMP_pressure;BME280_temperature;BME280_humidity;BME280_pressure;Samples;Min_cycle;Max_cycle;Signal;HPM_P1;HPM_P2
2022/08/18 00:00:47;;;;;;;68.35;57.78;;;25.80;62.50;;;;;;4948416;28;95892;-53
2022/08/18 00:03:13;;;;;;;68.82;57.55;;;25.80;62.50;;;;;;4949807;28;95583;-53
2022/08/18 00:05:39;;;;;;;69.18;58.30;;;25.70;62.60;;;;;;4950748;28;97743;-55
2022/08/18 00:08:05;;;;;;;67.72;57.47;;;25.70;62.60;;;;;;4953907;28;99817;-55
2022/08/18 00:10:32;;;;;;;68.60;57.85;;;25.70;62.60;;;;;;4943383;28;95318;-55
2022/08/18 00:12:58;;;;;;;69.55;58.30;;;25.70;62.50;;;;;;4946365;28;95042;-54
2022/08/18 00:15:24;;;;;;;68.60;56.03;;;25.70;62.40;;;;;;4944588;28;96116;-55
2022/08/18 00:17:50;;;;;;;68.45;57.72;;;25.70;62.40;;;;;;4947895;28;95880;-55
2022/08/18 00:20:19;;;;;;;67.95;57.25;;;25.70;62.50;;;;;;4948812;28;95792;-53
2022/08/18 00:22:45;;;;;;;67.97;57.42;;;25.70;62.30;;;;;;4945816;28;95162;-54
2022/08/18 00:25:14;;;;;;;69.45;58.72;;;25.70;62.20;;;;;;4949461;28;95464;-52
2022/08/18 00:27:42;;;;;;;68.57;58.10;;;25.70;62.50;;;;;;4948654;28;96241;-55
2022/08/18 00:30:15;;;;;;;69.72;58.60;;;25.60;62.40;;;;;;4953405;28;96697;-54
2022/08/18 00:32:45;;;;;;;67.40;57.15;;;25.70;62.50;;;;;;4951118;28;96789;-55
2022/08/18 00:35:26;;;;;;;68.75;58.35;;;25.70;62.50;;;;;;4952947;28;94723;-56
2022/08/18 00:37:54;;;;;;;68.68;57.22;;;25.60;62.40;;;;;;4946644;28;95812;-53
2022/08/18 00:40:24;;;;;;;70.05;59.00;;;25.70;62.40;;;;;;4950245;28;95294;-54
2022/08/18 00:42:57;;;;;;;70.35;58.97;;;25.70;62.40;;;;;;4947376;28;95176;-54
2022/08/18 00:45:31;;;;;;;67.82;57.40;;;25.60;62.30;;;;;;4944252;28;94868;-55
2022/08/18 00:47:58;;;;;;;69.85;58.90;;;25.60;62.30;;;;;;4954560;28;94698;-55
2022/08/18 00:50:38;;;;;;;68.50;58.30;;;25.70;62.30;;;;;;4943370;28;96030;-55
2022/08/18 00:53:13;;;;;;;69.65;58.78;;;25.60;62.30;;;;;;4948733;28;97108;-55
2022/08/18 00:55:41;;;;;;;68.82;58.20;;;25.60;62.30;;;;;;4949104;28;96035;-54
2022/08/18 00:58:14;;;;;;;68.15;57.40;;;25.60;62.30;;;;;;4946256;28;95872;-54
2022/08/18 01:00:41;;;;;;;69.32;58.90;;;25.60;62.20;;;;;;4944680;28;100912;-51
2022/08/18 01:03:11;;;;;;;68.32;58.50;;;25.60;62.30;;;;;;4948499;28;96056;-54
2022/08/18 01:05:49;;;;;;;71.20;58.23;;;25.60;62.20;;;;;;4949771;28;95020;-52
2022/08/18 01:08:16;;;;;;;69.07;57.45;;;25.60;62.30;;;;;;4954221;28;95735;-55
2022/08/18 01:10:42;;;;;;;69.03;57.58;;;25.60;62.10;;;;;;4953802;28;97953;-53
2022/08/18 01:13:09;;;;;;;69.15;58.78;;;25.60;62.20;;;;;;4956442;28;94315;-54
2022/08/18 01:15:35;;;;;;;69.35;58.90;;;25.60;62.40;;;;;;4953094;28;99894;-54
2022/08/18 01:23:57;;;;;;;68.32;57.97;;;25.60;62.30;;;;;;4957295;28;95376;-55
2022/08/18 01:26:25;;;;;;;68.65;58.33;;;25.60;62.30;;;;;;4956259;28;94897;-55
2022/08/18 01:28:52;;;;;;;67.90;57.60;;;25.60;62.20;;;;;;4973368;28;98527;-56
2022/08/18 01:31:37;;;;;;;70.03;58.47;;;25.60;62.10;;;;;;4957736;28;95203;-54
2022/08/18 01:34:05;;;;;;;67.80;57.15;;;25.60;62.20;;;;;;4951539;28;95039;-55
2022/08/18 01:36:36;;;;;;;68.80;57.53;;;25.60;62.10;;;;;;4945723;28;100036;-55
2022/08/18 01:39:05;;;;;;;68.35;58.08;;;25.50;62.10;;;;;;4954549;28;94342;-55
2022/08/18 01:41:31;;;;;;;68.18;57.42;;;25.60;62.10;;;;;;4950348;28;101353;-54
2022/08/18 01:43:58;;;;;;;67.68;57.40;;;25.50;62.00;;;;;;4953020;28;97631;-54
2022/08/18 01:46:23;;;;;;;68.28;57.42;;;25.60;62.10;;;;;;4949780;28;96445;-54
2022/08/18 01:48:50;;;;;;;69.45;58.30;;;25.50;62.10;;;;;;4950882;28;106762;-56
2022/08/18 01:51:20;;;;;;;69.47;59.17;;;25.50;62.10;;;;;;4955933;28;95165;-52
2022/08/18 01:53:47;;;;;;;67.63;57.45;;;25.50;62.20;;;;;;4947254;28;95054;-53
2022/08/18 01:56:16;;;;;;;68.55;57.85;;;25.50;62.00;;;;;;4949237;28;94790;-54
2022/08/18 01:58:43;;;;;;;68.43;58.25;;;25.50;63.00;;;;;;4951710;28;95342;-54
2022/08/18 02:01:11;;;;;;;68.25;57.35;;;25.50;62.00;;;;;;4945457;28;95315;-56
2022/08/18 02:03:40;;;;;;;67.68;56.83;;;25.50;62.10;;;;;;4946008;28;102369;-56
2022/08/18 02:06:09;;;;;;;68.55;57.33;;;25.50;62.10;;;;;;4957336;28;95188;-54
2022/08/18 02:08:35;;;;;;;69.00;57.80;;;25.50;62.00;;;;;;4959329;28;95064;-56
2022/08/18 02:11:02;;;;;;;69.78;58.90;;;25.50;61.80;;;;;;4948997;28;101145;-54
2022/08/18 02:13:28;;;;;;;67.65;57.17;;;25.50;61.90;;;;;;4945534;28;97482;-56
2022/08/18 02:15:54;;;;;;;68.95;57.83;;;25.50;61.80;;;;;;4948829;28;97804;-54
2022/08/18 02:18:24;;;;;;;68.65;57.97;;;25.50;61.90;;;;;;4944034;28;95615;-54
2022/08/18 02:20:49;;;;;;;69.05;57.55;;;25.40;61.80;;;;;;4947412;28;96443;-56
2022/08/18 02:23:16;;;;;;;69.75;58.65;;;25.50;61.90;;;;;;4948656;28;100686;-55
2022/08/18 02:25:42;;;;;;;70.45;59.55;;;25.50;61.80;;;;;;4949682;28;94689;-54
2022/08/18 02:28:08;;;;;;;66.40;56.72;;;25.50;61.80;;;;;;4946405;28;96606;-52
2022/08/18 02:30:38;;;;;;;70.75;59.47;;;25.50;61.90;;;;;;4952450;28;95717;-52
2022/08/18 02:33:05;;;;;;;69.97;59.47;;;25.50;61.70;;;;;;4947905;28;100904;-53
2022/08/18 02:35:31;;;;;;;69.30;58.40;;;25.50;61.80;;;;;;4952125;28;96404;-54
2022/08/18 02:38:02;;;;;;;69.03;58.10;;;25.50;61.90;;;;;;4947463;28;97468;-51
2022/08/18 02:40:28;;;;;;;68.70;58.03;;;25.50;62.00;;;;;;4942778;28;96611;-53
2022/08/18 02:42:54;;;;;;;68.53;57.90;;;25.50;61.90;;;;;;4949312;28;96102;-55
2022/08/18 02:45:22;;;;;;;67.50;57.13;;;25.50;62.00;;;;;;4947785;28;95480;-56
2022/08/18 02:47:52;;;;;;;67.30;57.22;;;25.40;62.00;;;;;;4955869;28;96504;-53
2022/08/18 02:50:18;;;;;;;67.43;56.87;;;25.50;61.90;;;;;;4945219;28;96797;-53
2022/08/18 02:52:44;;;;;;;67.50;56.72;;;25.50;62.00;;;;;;4949081;28;94250;-55
2022/08/18 02:55:10;;;;;;;67.15;56.63;;;25.50;62.00;;;;;;4951176;28;99010;-54
2022/08/18 02:57:44;;;;;;;69.57;58.38;;;25.50;61.70;;;;;;4945746;28;95086;-54
2022/08/18 03:00:15;;;;;;;66.70;56.55;;;25.50;61.60;;;;;;4944735;28;96292;-51
2022/08/18 03:02:53;;;;;;;68.78;57.60;;;25.50;61.80;;;;;;4945732;28;102353;-53
2022/08/18 03:05:19;;;;;;;68.50;57.67;;;25.50;61.70;;;;;;4948952;28;95525;-54
2022/08/18 03:07:45;;;;;;;68.55;58.30;;;25.50;61.70;;;;;;4956590;28;95107;-55
2022/08/18 03:10:13;;;;;;;68.38;57.60;;;25.50;61.70;;;;;;4943281;28;95362;-53
2022/08/18 03:12:42;;;;;;;70.40;58.55;;;25.40;61.70;;;;;;4947632;28;96768;-52
2022/08/18 03:15:08;;;;;;;69.85;58.40;;;25.50;61.80;;;;;;4942356;28;95621;-52
2022/08/18 03:17:36;;;;;;;68.78;57.85;;;25.40;61.70;;;;;;4952201;28;95095;-55
2022/08/18 03:20:03;;;;;;;70.35;58.15;;;25.40;61.60;;;;;;4946920;28;96683;-50
2022/08/18 03:22:28;;;;;;;68.00;57.50;;;25.40;61.60;;;;;;4947267;28;95592;-54
2022/08/18 03:24:54;;;;;;;68.90;58.10;;;25.40;61.50;;;;;;4950755;28;95956;-54
2022/08/18 03:27:20;;;;;;;68.72;58.13;;;25.40;61.60;;;;;;4950356;28;99355;-55
2022/08/18 03:29:45;;;;;;;69.43;58.33;;;25.40;61.50;;;;;;4946709;28;96058;-52
2022/08/18 03:32:11;;;;;;;70.97;59.42;;;25.50;61.30;;;;;;4949365;28;101324;-51
2022/08/18 03:34:37;;;;;;;70.95;59.28;;;25.40;61.40;;;;;;4953534;28;94780;-53
2022/08/18 03:37:03;;;;;;;68.50;57.53;;;25.40;61.60;;;;;;4949789;28;100624;-55
2022/08/18 03:39:30;;;;;;;69.78;58.78;;;25.40;61.60;;;;;;4942140;28;96594;-51
2022/08/18 03:41:56;;;;;;;70.97;58.60;;;25.40;62.30;;;;;;4946054;28;95471;-55
2022/08/18 03:44:23;;;;;;;69.10;58.17;;;25.40;61.50;;;;;;4952239;28;95178;-52
2022/08/18 03:46:49;;;;;;;67.40;57.38;;;25.40;61.50;;;;;;4945388;28;96167;-53
2022/08/18 03:49:17;;;;;;;70.53;58.75;;;25.40;61.50;;;;;;4947905;28;95731;-52
2022/08/18 03:51:45;;;;;;;68.88;57.50;;;25.40;61.20;;;;;;4951772;28;95986;-52
2022/08/18 03:54:12;;;;;;;68.95;57.63;;;25.40;61.30;;;;;;4947617;28;95196;-54
2022/08/18 03:56:40;;;;;;;70.38;58.90;;;25.40;62.20;;;;;;4947231;28;96214;-54
2022/08/18 03:59:11;;;;;;;67.53;56.88;;;25.40;61.20;;;;;;4947959;28;94702;-51
2022/08/18 04:01:40;;;;;;;;;;;25.50;61.40;;;;;;4953809;28;95934;-54
2022/08/18 04:04:08;;;;;;;67.68;57.58;;;25.40;61.40;;;;;;4958663;28;95318;-52
2022/08/18 04:06:38;;;;;;;68.40;57.85;;;25.40;61.40;;;;;;4949755;28;94034;-51
2022/08/18 04:09:06;;;;;;;73.95;59.83;;;25.50;61.40;;;;;;4952551;28;96150;-53
2022/08/18 04:11:34;;;;;;;69.05;57.47;;;25.40;61.40;;;;;;4949683;28;94762;-55
2022/08/18 04:14:00;;;;;;;69.43;57.38;;;25.40;61.50;;;;;;4947607;28;97341;-53
2022/08/18 04:16:28;;;;;;;70.00;58.22;;;25.40;61.50;;;;;;4946174;28;95438;-54
2022/08/18 04:18:56;;;;;;;69.88;58.13;;;25.40;61.50;;;;;;4950950;28;99692;-52
2022/08/18 04:21:23;;;;;;;70.28;58.55;;;25.40;61.60;;;;;;4947793;28;95720;-50
2022/08/18 04:23:48;;;;;;;70.38;58.85;;;25.40;61.40;;;;;;4944655;28;95420;-50
2022/08/18 04:26:17;;;;;;;71.15;58.67;;;25.40;61.40;;;;;;4942562;28;95247;-51
2022/08/18 04:28:43;;;;;;;69.97;58.92;;;25.40;61.50;;;;;;4951608;28;95241;-52
2022/08/18 04:31:12;;;;;;;70.43;58.20;;;25.40;61.40;;;;;;4951327;28;94482;-55
2022/08/18 04:33:39;;;;;;;69.50;58.22;;;25.40;61.40;;;;;;4944958;28;95738;-55
2022/08/18 04:36:13;;;;;;;69.72;58.33;;;25.40;61.50;;;;;;4950550;28;97215;-54
2022/08/18 04:38:42;;;;;;;70.72;58.67;;;25.40;61.40;;;;;;4945726;28;97409;-54
2022/08/18 04:41:13;;;;;;;70.13;58.20;;;25.40;61.50;;;;;;4950782;28;95500;-54
2022/08/18 04:43:40;;;;;;;69.18;58.55;;;25.40;61.50;;;;;;4943386;28;95535;-54
2022/08/18 04:46:05;;;;;;;70.95;59.28;;;25.40;61.40;;;;;;4948832;28;94770;-50
2022/08/18 04:48:38;;;;;;;69.68;58.83;;;25.40;61.40;;;;;;4943358;28;95608;-53
2022/08/18 04:51:11;;;;;;;70.43;58.42;;;25.40;61.40;;;;;;4949617;28;94915;-54
2022/08/18 04:53:44;;;;;;;70.00;58.30;;;25.40;61.30;;;;;;4949546;28;95341;-55
2022/08/18 04:56:25;;;;;;;69.30;57.65;;;25.40;61.40;;;;;;4948885;28;97734;-51
2022/08/18 04:59:03;;;;;;;69.70;58.45;;;25.40;61.40;;;;;;4951665;28;95747;-55
2022/08/18 05:01:33;;;;;;;70.97;58.35;;;25.30;61.30;;;;;;4945874;28;95072;-54
2022/08/18 05:03:59;;;;;;;70.63;58.97;;;25.40;61.40;;;;;;4945560;28;96123;-55
2022/08/18 05:06:27;;;;;;;69.90;58.75;;;25.40;61.30;;;;;;4948413;28;95776;-54
2022/08/18 05:08:55;;;;;;;69.32;57.58;;;25.40;61.30;;;;;;4949224;28;98169;-51
2022/08/18 05:11:22;;;;;;;70.53;59.03;;;25.40;61.30;;;;;;4944321;28;97574;-54
2022/08/18 05:13:48;;;;;;;69.53;58.45;;;25.30;61.20;;;;;;4947672;28;96144;-54
2022/08/18 05:16:14;;;;;;;70.75;58.13;;;25.40;61.40;;;;;;4950655;28;95481;-55
2022/08/18 05:18:40;;;;;;;69.57;58.15;;;25.40;61.40;;;;;;4947148;28;100061;-51
2022/08/18 05:21:07;;;;;;;70.45;58.50;;;25.30;61.20;;;;;;4942082;28;98779;-50
2022/08/18 05:23:33;;;;;;;69.70;58.45;;;25.40;61.30;;;;;;4940837;28;95067;-54
2022/08/18 05:26:02;;;;;;;71.20;58.60;;;25.40;61.40;;;;;;4949371;28;96696;-53
2022/08/18 05:28:29;;;;;;;72.97;58.00;;;25.40;61.20;;;;;;4946670;28;98517;-53
2022/08/18 05:30:56;;;;;;;70.80;58.42;;;25.40;61.30;;;;;;4943671;28;98385;-51
2022/08/18 05:33:22;;;;;;;70.22;58.38;;;25.40;61.30;;;;;;4939322;28;96402;-53
2022/08/18 05:35:53;;;;;;;71.47;58.85;;;25.40;61.20;;;;;;4950666;28;94837;-53
2022/08/18 05:38:38;;;;;;;71.40;58.55;;;25.40;61.20;;;;;;4946185;28;95523;-54
2022/08/18 05:41:20;;;;;;;73.72;60.35;;;25.40;61.50;;;;;;4948717;28;97941;-53
2022/08/18 05:43:47;;;;;;;78.15;63.25;;;25.40;61.40;;;;;;4943573;28;105297;-55
2022/08/18 05:46:13;;;;;;;79.38;65.25;;;25.50;61.40;;;;;;4942022;28;94514;-53
2022/08/18 05:48:39;;;;;;;84.78;68.43;;;25.50;61.30;;;;;;4951445;28;94899;-53
2022/08/18 05:51:17;;;;;;;87.25;69.97;;;25.50;61.30;;;;;;4950161;28;96191;-51
2022/08/18 05:56:45;;;;;;;88.90;70.95;;;25.50;61.60;;;;;;4953701;28;95142;-54
2022/08/18 05:59:18;;;;;;;130.70;99.50;;;25.50;61.70;;;;;;4934448;28;96670;-54
2022/08/18 06:01:50;;;;;;;132.48;98.47;;;25.30;61.80;;;;;;4950987;28;96004;-57
2022/08/18 06:04:29;;;;;;;141.50;101.68;;;24.60;64.80;;;;;;4953135;28;95403;-56
2022/08/18 06:06:57;;;;;;;144.68;104.05;;;24.00;67.40;;;;;;4947788;28;95522;-54
2022/08/18 06:09:35;;;;;;;106.32;85.78;;;23.50;70.00;;;;;;4946818;28;97028;-54
2022/08/18 06:12:17;;;;;;;123.35;92.43;;;23.20;71.00;;;;;;4947976;28;95437;-57
2022/08/18 06:14:43;;;;;;;135.95;100.55;;;23.20;70.90;;;;;;4951804;28;95482;-53
2022/08/18 06:17:24;;;;;;;145.43;102.97;;;23.20;71.50;;;;;;4952783;28;95163;-53
2022/08/18 06:20:09;;;;;;;142.60;104.33;;;23.20;72.70;;;;;;4950966;28;96885;-55
2022/08/18 06:22:49;;;;;;;128.52;95.10;;;23.20;72.10;;;;;;4943420;28;96540;-55
2022/08/18 06:25:33;;;;;;;129.95;96.85;;;23.40;71.50;;;;;;4947761;28;101239;-53
2022/08/18 06:28:02;;;;;;;127.40;95.78;;;23.40;70.60;;;;;;4935211;28;97679;-52
2022/08/18 06:30:54;;;;;;;121.75;92.80;;;23.60;69.60;;;;;;4946763;28;96434;-53
2022/08/18 06:33:28;;;;;;;;;;;23.50;69.40;;;;;;4955329;28;95080;-54
2022/08/18 06:36:01;;;;;;;125.75;95.72;;;23.30;70.80;;;;;;4955532;28;94735;-51
2022/08/18 06:38:50;;;;;;;129.82;97.40;;;23.00;72.10;;;;;;4941009;28;94383;-52
2022/08/18 06:41:41;;;;;;;135.25;100.00;;;22.80;73.40;;;;;;4929922;28;95475;-55
2022/08/18 06:44:10;;;;;;;141.45;101.97;;;22.60;74.60;;;;;;4950703;28;96302;-58
2022/08/18 06:46:42;;;;;;;132.43;100.68;;;22.50;74.50;;;;;;4948951;28;97205;-51
2022/08/18 06:49:20;;;;;;;126.32;95.65;;;22.60;74.50;;;;;;4951626;28;97551;-54
2022/08/18 06:51:46;;;;;;;136.32;101.25;;;22.80;74.60;;;;;;4948586;28;95932;-59
2022/08/18 06:54:21;;;;;;;117.72;91.57;;;22.90;73.80;;;;;;4951340;28;96650;-60
2022/08/18 06:56:51;;;;;;;138.82;98.95;;;23.10;73.20;;;;;;4946746;28;96126;-53
2022/08/18 06:59:29;;;;;;;110.27;83.40;;;23.30;72.10;;;;;;4953340;28;95537;-56
2022/08/18 07:02:22;;;;;;;135.63;98.47;;;23.40;71.20;;;;;;4950457;28;95381;-55
2022/08/18 07:05:22;;;;;;;105.90;84.93;;;23.60;70.50;;;;;;4946891;28;96714;-60
2022/08/18 07:08:13;;;;;;;137.95;101.93;;;23.80;70.20;;;;;;4917192;28;95230;-61
2022/08/18 07:10:50;;;;;;;149.45;106.45;;;23.80;70.30;;;;;;4951695;28;96105;-57
2022/08/18 07:13:20;;;;;;;151.77;105.75;;;23.70;70.30;;;;;;4946948;28;96940;-57
2022/08/18 07:15:47;;;;;;;118.32;88.88;;;23.50;71.40;;;;;;4945915;28;99923;-57
2022/08/18 07:18:19;;;;;;;135.60;99.45;;;23.40;72.10;;;;;;4955691;28;95319;-59
2022/08/18 07:20:53;;;;;;;174.55;117.35;;;23.40;71.90;;;;;;4956984;28;96041;-58
2022/08/18 07:23:27;;;;;;;143.70;103.05;;;23.70;71.10;;;;;;4958997;28;96838;-59
2022/08/18 07:26:04;;;;;;;152.93;107.75;;;23.80;69.90;;;;;;4949925;28;96420;-59
2022/08/18 07:29:10;;;;;;;152.93;108.53;;;23.90;69.80;;;;;;4942246;28;95922;-55
2022/08/18 07:31:47;;;;;;;157.85;112.20;;;23.90;69.30;;;;;;4951661;28;94458;-59
2022/08/18 07:34:19;;;;;;;165.45;115.90;;;24.00;69.30;;;;;;4952330;28;97727;-55
2022/08/18 07:37:03;;;;;;;169.77;117.00;;;24.00;69.40;;;;;;4957970;28;95468;-54
2022/08/18 07:39:51;;;;;;;181.75;123.03;;;24.00;69.40;;;;;;4942799;28;97999;-59
2022/08/18 07:42:31;;;;;;;193.60;125.30;;;24.10;69.80;;;;;;4942516;28;95427;-60
2022/08/18 07:45:01;;;;;;;194.35;123.07;;;24.10;69.70;;;;;;4947590;28;96699;-59
2022/08/18 07:48:07;;;;;;;189.73;121.97;;;24.10;69.70;;;;;;4944689;28;96490;-58
2022/08/18 07:50:56;;;;;;;198.80;126.80;;;24.20;69.50;;;;;;4947998;28;100417;-61
2022/08/18 07:53:37;;;;;;;185.35;122.43;;;24.10;69.50;;;;;;4950361;28;96441;-58
2022/08/18 07:56:22;;;;;;;189.05;122.57;;;24.10;69.90;;;;;;4950377;28;95679;-56
2022/08/18 07:59:06;;;;;;;166.32;114.65;;;23.90;70.40;;;;;;4955138;28;93949;-62
2022/08/18 08:01:51;;;;;;;182.02;121.65;;;24.00;71.00;;;;;;4951289;28;97453;-60
2022/08/18 08:04:43;;;;;;;189.55;124.20;;;24.10;70.50;;;;;;4942761;28;96124;-57
2022/08/18 08:07:13;;;;;;;188.45;122.82;;;24.10;69.90;;;;;;4952261;28;96375;-60
2022/08/18 08:10:17;;;;;;;197.77;123.35;;;23.90;69.80;;;;;;4956147;28;96747;-60
2022/08/18 08:13:27;;;;;;;182.15;119.90;;;24.00;70.90;;;;;;4945168;28;96960;-57
2022/08/18 08:16:03;;;;;;;166.57;112.40;;;24.00;70.00;;;;;;4908677;28;95323;-58
2022/08/18 08:18:50;;;;;;;179.98;119.93;;;24.00;71.00;;;;;;4946826;28;96462;-59
2022/08/18 08:21:19;;;;;;;166.15;112.53;;;24.10;69.50;;;;;;4948447;28;95082;-58
2022/08/18 08:24:19;;;;;;;156.73;109.35;;;24.20;70.30;;;;;;4954220;28;96753;-57
2022/08/18 08:27:15;;;;;;;182.13;120.85;;;24.30;69.00;;;;;;4960679;28;94150;-57
2022/08/18 08:30:01;;;;;;;165.13;116.53;;;24.20;69.00;;;;;;4945003;28;101153;-57
2022/08/18 08:32:34;;;;;;;176.65;116.07;;;24.20;69.30;;;;;;4939819;28;99402;-58
2022/08/18 08:35:21;;;;;;;155.88;105.57;;;24.10;69.80;;;;;;4948451;28;96587;-57
2022/08/18 08:37:59;;;;;;;172.02;112.90;;;24.30;69.90;;;;;;4948678;28;96438;-60
2022/08/18 08:40:50;;;;;;;154.15;106.82;;;24.20;68.00;;;;;;4948434;28;95462;-57
2022/08/18 08:43:22;;;;;;;166.20;114.38;;;24.30;67.50;;;;;;4951526;28;96204;-56
2022/08/18 08:45:59;;;;;;;164.98;111.82;;;24.30;67.10;;;;;;4955061;28;95638;-59
2022/08/18 08:48:30;;;;;;;167.32;111.95;;;24.40;67.10;;;;;;4948939;28;95504;-57
2022/08/18 08:51:06;;;;;;;169.00;111.43;;;24.40;67.00;;;;;;4954662;28;95983;-57
2022/08/18 08:53:44;;;;;;;164.45;111.35;;;24.40;66.80;;;;;;4950243;28;95789;-60
2022/08/18 08:56:15;;;;;;;163.23;112.28;;;24.40;67.10;;;;;;4945921;28;95507;-59
2022/08/18 08:59:03;;;;;;;155.00;108.55;;;24.40;67.10;;;;;;4955031;28;95237;-60
2022/08/18 09:02:13;;;;;;;153.20;108.10;;;24.30;67.60;;;;;;4945724;28;95776;-63
2022/08/18 09:04:48;;;;;;;161.55;111.93;;;24.40;67.90;;;;;;4947927;28;97596;-56
2022/08/18 09:07:41;;;;;;;158.70;110.70;;;24.40;68.00;;;;;;4944582;28;95984;-61
2022/08/18 09:10:44;;;;;;;147.15;105.05;;;24.30;67.80;;;;;;4945356;28;95671;-60
2022/08/18 09:13:34;;;;;;;150.98;108.28;;;24.40;67.90;;;;;;4934630;28;95532;-61
2022/08/18 09:16:18;;;;;;;152.18;109.00;;;24.50;67.90;;;;;;4947540;28;95285;-61
2022/08/18 09:19:01;;;;;;;138.05;100.43;;;24.40;68.00;;;;;;4950149;28;95549;-65
2022/08/18 09:21:45;;;;;;;141.75;102.55;;;24.50;67.20;;;;;;4945279;28;93916;-57
2022/08/18 09:24:30;;;;;;;152.38;108.55;;;24.60;66.80;;;;;;4948993;28;96123;-58
2022/08/18 09:27:02;;;;;;;140.00;102.25;;;24.60;67.10;;;;;;4950526;28;95117;-59
2022/08/18 09:29:36;;;;;;;148.75;105.72;;;24.50;67.20;;;;;;4951149;28;96942;-55
2022/08/18 09:32:17;;;;;;;142.13;103.38;;;24.60;67.30;;;;;;4947830;28;100362;-55
2022/08/18 09:35:22;;;;;;;143.73;103.80;;;24.60;67.00;;;;;;4951101;28;97054;-55
2022/08/18 09:44:08;;;;;;;;;;;24.80;66.30;;;;;;4958324;28;95471;-59
2022/08/18 09:46:43;;;;;;;146.70;106.38;;;24.70;66.40;;;;;;4955467;28;100741;-59
2022/08/18 09:49:24;;;;;;;155.43;116.07;;;24.70;66.20;;;;;;4954106;28;95294;-60
2022/08/18 09:51:52;;;;;;;140.80;105.75;;;24.80;66.50;;;;;;4948385;28;94744;-59
2022/08/18 09:54:23;;;;;;;158.20;114.65;;;24.70;66.70;;;;;;4951367;28;95591;-56
2022/08/18 09:56:48;;;;;;;139.57;106.85;;;24.90;66.10;;;;;;4952951;28;96359;-59
2022/08/18 09:59:35;;;;;;;151.40;114.47;;;24.90;66.50;;;;;;4951578;28;96406;-60
2022/08/18 10:02:07;;;;;;;142.40;109.28;;;24.90;65.10;;;;;;4930011;28;99783;-55
2022/08/18 10:04:49;;;;;;;142.77;111.72;;;24.90;64.90;;;;;;4945240;28;95520;-59
2022/08/18 10:07:36;;;;;;;150.98;117.18;;;24.90;65.60;;;;;;4941761;28;95315;-58
2022/08/18 10:10:20;;;;;;;145.07;115.25;;;25.00;64.80;;;;;;4940053;28;96228;-59
2022/08/18 10:13:18;;;;;;;133.68;105.95;;;24.90;64.00;;;;;;4939465;28;95520;-59
2022/08/18 10:16:22;;;;;;;125.53;102.78;;;25.00;64.00;;;;;;4940105;28;100283;-57
2022/08/18 10:18:50;;;;;;;127.22;101.15;;;25.00;62.60;;;;;;4942328;28;95482;-58
2022/08/18 10:21:27;;;;;;;122.43;99.50;;;25.00;63.90;;;;;;4942221;28;100277;-59
2022/08/18 10:24:11;;;;;;;123.97;98.82;;;25.00;62.90;;;;;;4944951;28;96338;-59
2022/08/18 10:26:37;;;;;;;118.90;97.70;;;25.00;64.00;;;;;;4939035;28;96009;-59
2022/08/18 10:29:02;;;;;;;127.38;100.03;;;25.10;63.10;;;;;;4944789;28;99246;-58
2022/08/18 10:31:30;;;;;;;114.50;94.90;;;25.10;62.70;;;;;;4939455;28;100870;-58
2022/08/18 10:34:01;;;;;;;124.60;100.80;;;25.10;63.00;;;;;;4952818;28;95162;-57
2022/08/18 10:36:56;;;;;;;128.05;100.63;;;25.00;62.40;;;;;;4943136;28;96239;-58
2022/08/18 10:39:50;;;;;;;131.18;105.55;;;25.20;63.70;;;;;;4942737;28;96357;-58
2022/08/18 10:42:24;;;;;;;126.40;102.22;;;25.30;62.80;;;;;;4943088;28;94865;-58
2022/08/18 10:44:59;;;;;;;118.00;96.03;;;25.20;62.70;;;;;;4943683;28;94980;-58
2022/08/18 10:47:28;;;;;;;119.28;99.80;;;25.20;62.80;;;;;;4953074;28;95139;-57
2022/08/18 10:49:54;;;;;;;115.65;93.68;;;25.10;61.90;;;;;;4946276;28;101645;-57
2022/08/18 10:52:39;;;;;;;118.75;94.75;;;25.10;62.10;;;;;;4941453;28;96220;-56
2022/08/18 10:55:36;;;;;;;112.90;92.68;;;25.20;62.80;;;;;;4946166;28;96766;-57
2022/08/18 10:58:32;;;;;;;97.07;80.85;;;25.20;63.90;;;;;;4949219;28;101876;-56
2022/08/18 11:01:34;;;;;;;91.13;77.05;;;25.20;62.70;;;;;;4939555;28;95734;-53
2022/08/18 11:04:23;;;;;;;90.38;75.57;;;25.20;61.80;;;;;;4925706;28;96607;-55
2022/08/18 11:06:56;;;;;;;88.00;74.55;;;25.20;62.40;;;;;;4943667;28;97853;-56
2022/08/18 11:09:27;;;;;;;91.30;75.03;;;25.30;62.80;;;;;;4947188;28;94491;-55
2022/08/18 11:11:55;;;;;;;84.63;70.22;;;25.40;62.30;;;;;;4938020;28;98756;-52
2022/08/18 11:14:27;;;;;;;84.53;70.72;;;25.40;62.10;;;;;;4942034;28;95392;-58
2022/08/18 11:17:08;;;;;;;82.07;69.05;;;25.40;61.00;;;;;;4952533;28;96385;-53
2022/08/18 11:19:38;;;;;;;85.53;70.80;;;25.50;61.90;;;;;;4948911;28;95264;-58
2022/08/18 11:22:05;;;;;;;77.47;65.55;;;25.60;61.50;;;;;;4948545;28;95636;-58
2022/08/18 11:24:34;;;;;;;77.65;64.75;;;25.60;59.80;;;;;;4944116;28;95423;-58
2022/08/18 11:27:05;;;;;;;79.13;65.18;;;25.60;60.50;;;;;;4955842;28;95139;-54
2022/08/18 11:29:37;;;;;;;74.18;61.38;;;25.60;60.90;;;;;;4947182;28;95427;-54
2022/08/18 11:32:17;;;;;;;77.68;63.03;;;25.60;60.20;;;;;;4944808;28;94867;-56
2022/08/18 11:34:44;;;;;;;74.43;61.90;;;25.60;61.10;;;;;;4953584;28;95400;-59
2022/08/18 11:37:30;;;;;;;74.05;62.90;;;25.70;60.20;;;;;;4947686;28;95385;-58
2022/08/18 11:39:59;;;;;;;79.55;64.20;;;25.80;59.10;;;;;;4944315;28;95556;-59
2022/08/18 11:42:38;;;;;;;75.30;63.35;;;25.80;59.60;;;;;;4944965;28;96913;-59
2022/08/18 11:45:06;;;;;;;77.03;64.78;;;25.80;60.50;;;;;;4942605;28;99092;-58
2022/08/18 11:47:32;;;;;;;76.50;63.70;;;25.80;59.30;;;;;;4948546;28;94762;-53
2022/08/18 11:50:11;;;;;;;75.70;62.90;;;25.90;59.00;;;;;;4938190;28;98412;-56
2022/08/18 11:52:49;;;;;;;75.38;61.85;;;25.90;59.30;;;;;;4945410;28;99660;-59
2022/08/18 11:55:26;;;;;;;78.63;62.85;;;25.80;58.50;;;;;;4936238;28;95623;-58
2022/08/18 11:57:54;;;;;;;75.13;62.35;;;25.80;58.90;;;;;;4952545;28;95666;-58
2022/08/18 12:00:35;;;;;;;74.43;61.20;;;25.80;58.80;;;;;;4946304;28;99692;-56
2022/08/18 12:03:35;;;;;;;72.60;60.88;;;25.80;59.00;;;;;;4941032;28;97688;-60
2022/08/18 12:06:18;;;;;;;74.50;61.13;;;26.00;58.70;;;;;;4938272;28;95368;-56
2022/08/18 12:08:55;;;;;;;73.78;62.17;;;26.10;58.00;;;;;;4943880;28;96202;-55
2022/08/18 12:11:28;;;;;;;74.25;61.65;;;26.20;58.20;;;;;;4942309;28;94829;-56
2022/08/18 12:14:15;;;;;;;72.75;60.35;;;26.20;58.40;;;;;;4944405;28;97461;-57
2022/08/18 12:16:42;;;;;;;76.10;62.63;;;26.10;58.10;;;;;;4942683;28;95430;-55
2022/08/18 12:19:11;;;;;;;74.45;61.42;;;26.20;57.40;;;;;;4949104;28;95333;-57
2022/08/18 12:21:49;;;;;;;71.90;60.35;;;26.20;57.80;;;;;;4946860;28;95582;-58
2022/08/18 12:24:25;;;;;;;75.90;60.95;;;26.30;57.10;;;;;;4949289;28;95318;-57
2022/08/18 12:26:51;;;;;;;73.38;61.95;;;26.30;57.40;;;;;;4944101;28;96042;-55
2022/08/18 12:29:18;;;;;;;75.70;63.33;;;26.30;56.60;;;;;;4940757;28;94824;-56
2022/08/18 12:31:49;;;;;;;73.45;60.20;;;26.30;56.10;;;;;;4942735;28;97551;-55
2022/08/18 12:34:22;;;;;;;74.18;61.80;;;26.30;56.40;;;;;;4938115;28;99278;-57
2022/08/18 12:36:49;;;;;;;74.47;60.92;;;26.40;57.00;;;;;;4939037;28;95977;-55
2022/08/18 12:39:15;;;;;;;73.47;61.13;;;26.40;57.20;;;;;;4946297;28;96154;-58
2022/08/18 12:41:41;;;;;;;75.53;62.90;;;26.30;57.50;;;;;;4947888;28;95189;-54
2022/08/18 12:44:06;;;;;;;74.55;62.00;;;26.40;56.70;;;;;;4941709;28;96009;-58
2022/08/18 12:46:32;;;;;;;75.07;62.03;;;26.40;57.00;;;;;;4944574;28;95465;-58
2022/08/18 12:48:58;;;;;;;75.47;61.45;;;26.50;57.30;;;;;;4946005;28;96816;-59
2022/08/18 12:51:23;;;;;;;71.65;60.28;;;26.50;56.80;;;;;;4948981;28;94387;-60
2022/08/18 12:53:49;;;;;;;72.68;60.92;;;26.50;56.50;;;;;;4945597;28;94968;-58
2022/08/18 12:56:24;;;;;;;74.47;61.13;;;26.60;57.00;;;;;;4942573;28;96625;-57
2022/08/18 12:58:50;;;;;;;77.30;61.53;;;26.60;54.90;;;;;;4940064;28;96426;-61
2022/08/18 13:01:18;;;;;;;71.70;60.20;;;26.50;54.90;;;;;;4940064;28;96459;-56
2022/08/18 13:03:45;;;;;;;73.45;60.33;;;26.50;55.30;;;;;;4945218;28;97658;-58
2022/08/18 13:06:12;;;;;;;71.70;58.80;;;26.50;55.70;;;;;;4942147;28;95365;-58
2022/08/18 13:08:37;;;;;;;72.80;61.20;;;26.50;56.00;;;;;;4951376;28;94996;-61